Terminal Aerodrome Forecast
Issued by NWS

Current Version | Previous Version | Graphics & Text | Print | Product List | Glossary On
Versions: 1 2 3 4 5 6 7 8 9 10 11 12 13 14 15 16 17 18 19 20 21
000
FTUS41 KILN 301100
TAFLCK
TAF
KLCK 301132Z 3012/3112 28012G20KT P6SM SCT022
     FM301700 28014G22KT P6SM SCT040
     FM310000 25007KT P6SM SCT090 BKN150
     FM310600 22010KT P6SM BKN090=

USA.gov is the U.S. government's official web portal to all federal, state and local government web resources and services.